Time;durP1;ratioP1;P1;durP2;ratioP2;P2;SDS_P1;SDS_P2;PMS_P1;PMS_P2;Temp;Humidity;BMP_temperature;BMP_pressure;BME280_temperature;BME280_humidity;BME280_pressure;Samples;Min_cycle;Max_cycle;Signal;HPM_P1;HPM_P2
2023/07/06 00:00:42;;;;;;;4.68;2.70;;;;;;;;;;5048256;28;41479;-63
2023/07/06 00:03:14;;;;;;;4.93;3.08;;;;;;;;;;5045846;28;43474;-63
2023/07/06 00:05:44;;;;;;;4.20;2.60;;;;;;;;;;5047033;28;41946;-63
2023/07/06 00:08:13;;;;;;;3.50;2.50;;;;;;;;;;5046764;28;41920;-63
2023/07/06 00:10:41;;;;;;;3.65;2.67;;;;;;;;;;5045972;28;42209;-63
2023/07/06 00:13:09;;;;;;;3.10;2.60;;;;;;;;;;5047490;28;42136;-63
2023/07/06 00:15:37;;;;;;;3.72;2.33;;;;;;;;;;5045430;28;42536;-63
2023/07/06 00:18:05;;;;;;;3.05;2.47;;;;;;;;;;5047858;28;42026;-63
2023/07/06 00:20:37;;;;;;;4.00;2.40;;;;;;;;;;5046623;28;40247;-63
2023/07/06 00:23:05;;;;;;;3.00;2.45;;;;;;;;;;5046927;28;42174;-63
2023/07/06 00:25:34;;;;;;;2.80;2.47;;;;;;;;;;5045026;28;41426;-63
2023/07/06 00:28:02;;;;;;;2.38;2.15;;;;;;;;;;5046714;28;41355;-63
2023/07/06 00:30:41;;;;;;;3.03;2.72;;;;;;;;;;5044702;28;41906;-63
2023/07/06 00:33:09;;;;;;;3.42;2.53;;;;;;;;;;5043045;28;40260;-63
2023/07/06 00:35:40;;;;;;;4.30;2.53;;;;;;;;;;5039232;28;41510;-63
2023/07/06 00:38:10;;;;;;;2.95;2.65;;;;;;;;;;5061165;28;41292;-63
2023/07/06 00:40:38;;;;;;;3.55;2.25;;;;;;;;;;5046870;28;42141;-63
2023/07/06 00:43:09;;;;;;;3.30;2.85;;;;;;;;;;5046400;28;41797;-63
2023/07/06 00:45:37;;;;;;;3.38;2.70;;;;;;;;;;5063536;28;38790;-63
2023/07/06 00:48:06;;;;;;;3.13;2.40;;;;;;;;;;5049205;28;41544;-63
2023/07/06 00:50:35;;;;;;;3.55;2.50;;;;;;;;;;5065152;28;41786;-63
2023/07/06 00:53:06;;;;;;;3.30;2.53;;;;;;;;;;5049398;28;41358;-63
2023/07/06 00:55:36;;;;;;;2.90;2.55;;;;;;;;;;5049047;28;41647;-63
2023/07/06 00:58:07;;;;;;;2.95;2.50;;;;;;;;;;5049877;28;42297;-63
2023/07/06 01:00:35;;;;;;;5.57;3.20;;;;;;;;;;5047353;28;39388;-63
2023/07/06 01:03:03;;;;;;;4.30;2.88;;;;;;;;;;5050718;28;41586;-63
2023/07/06 01:05:32;;;;;;;3.10;2.70;;;;;;;;;;5048477;28;43213;-63
2023/07/06 01:08:03;;;;;;;2.85;2.55;;;;;;;;;;5066320;28;40179;-63
2023/07/06 01:10:34;;;;;;;3.95;2.38;;;;;;;;;;5047465;28;40844;-63
2023/07/06 01:13:02;;;;;;;3.22;2.72;;;;;;;;;;5049567;28;41383;-63
2023/07/06 01:15:30;;;;;;;3.65;2.70;;;;;;;;;;5048323;28;41643;-63
2023/07/06 01:18:00;;;;;;;3.40;2.80;;;;;;;;;;5050797;28;42138;-63
2023/07/06 01:20:30;;;;;;;4.63;2.85;;;;;;;;;;5049279;28;40020;-63
2023/07/06 01:23:32;;;;;;;2.80;2.50;;;;;;;;;;5048241;28;41555;-63
2023/07/06 01:26:05;;;;;;;3.25;2.80;;;;;;;;;;5046828;28;42018;-62
2023/07/06 01:28:45;;;;;;;3.17;2.88;;;;;;;;;;5047019;28;41410;-63
2023/07/06 01:31:22;;;;;;;2.88;2.45;;;;;;;;;;5049374;28;42142;-62
2023/07/06 01:33:52;;;;;;;3.72;2.60;;;;;;;;;;5063122;28;39248;-63
2023/07/06 01:36:22;;;;;;;3.60;2.63;;;;;;;;;;5064644;28;40255;-63
2023/07/06 01:38:50;;;;;;;3.67;3.10;;;;;;;;;;5048980;28;43618;-63
2023/07/06 01:41:25;;;;;;;2.70;2.50;;;;;;;;;;5048415;28;40894;-63
2023/07/06 01:43:53;;;;;;;4.72;3.13;;;;;;;;;;5047694;28;41680;-62
2023/07/06 01:46:23;;;;;;;3.35;2.75;;;;;;;;;;5048688;28;42629;-63
2023/07/06 01:48:51;;;;;;;13.95;3.13;;;;;;;;;;5048807;28;41493;-63
2023/07/06 01:51:20;;;;;;;3.35;2.72;;;;;;;;;;5064688;28;41119;-63
2023/07/06 01:53:49;;;;;;;3.20;2.63;;;;;;;;;;5049085;28;40526;-63
2023/07/06 01:56:19;;;;;;;3.65;2.80;;;;;;;;;;5063296;28;40566;-63
2023/07/06 01:58:48;;;;;;;4.10;3.08;;;;;;;;;;5047300;28;41688;-63
2023/07/06 02:01:17;;;;;;;3.08;2.78;;;;;;;;;;5046821;28;41360;-63
2023/07/06 02:03:47;;;;;;;3.45;3.05;;;;;;;;;;5049737;28;42609;-63
2023/07/06 02:06:17;;;;;;;3.42;2.80;;;;;;;;;;5063918;28;42160;-63
2023/07/06 02:08:45;;;;;;;3.97;2.83;;;;;;;;;;5064450;28;38730;-63
2023/07/06 02:11:14;;;;;;;4.47;3.17;;;;;;;;;;5047692;28;40181;-62
2023/07/06 02:13:42;;;;;;;3.55;2.83;;;;;;;;;;5046857;28;41934;-63
2023/07/06 02:16:11;;;;;;;3.97;2.90;;;;;;;;;;5048878;28;41657;-63
2023/07/06 02:18:39;;;;;;;3.95;2.65;;;;;;;;;;5046924;28;42234;-62
2023/07/06 02:21:09;;;;;;;3.58;2.97;;;;;;;;;;5048867;28;41273;-63
2023/07/06 02:23:37;;;;;;;4.30;3.05;;;;;;;;;;5046143;28;42122;-62
2023/07/06 02:26:05;;;;;;;4.15;3.33;;;;;;;;;;5049027;28;42112;-63
2023/07/06 02:28:34;;;;;;;4.38;3.08;;;;;;;;;;5047527;28;40512;-63
2023/07/06 02:31:04;;;;;;;3.78;3.25;;;;;;;;;;5064125;28;41191;-65
2023/07/06 02:33:34;;;;;;;3.78;3.33;;;;;;;;;;5048173;28;42313;-63
2023/07/06 02:36:02;;;;;;;3.72;3.17;;;;;;;;;;5062521;28;40621;-63
2023/07/06 02:38:31;;;;;;;3.10;2.70;;;;;;;;;;5046494;28;40853;-63
2023/07/06 02:41:01;;;;;;;3.75;3.22;;;;;;;;;;5047500;28;40981;-62
2023/07/06 02:43:29;;;;;;;3.28;2.97;;;;;;;;;;5047804;28;41529;-63
2023/07/06 02:45:57;;;;;;;3.55;3.22;;;;;;;;;;5047698;28;41915;-63
2023/07/06 02:48:26;;;;;;;3.58;3.00;;;;;;;;;;5046766;28;38931;-63
2023/07/06 02:50:54;;;;;;;3.75;3.20;;;;;;;;;;5035652;28;41901;-63
2023/07/06 02:53:22;;;;;;;3.92;3.10;;;;;;;;;;5045059;28;40162;-63
2023/07/06 02:55:51;;;;;;;3.53;3.22;;;;;;;;;;5049805;28;40260;-63
2023/07/06 02:58:19;;;;;;;3.53;3.03;;;;;;;;;;5046072;28;42047;-63
2023/07/06 03:00:50;;;;;;;3.65;3.25;;;;;;;;;;5048790;28;40959;-63
2023/07/06 03:03:18;;;;;;;4.55;3.13;;;;;;;;;;5046426;28;42168;-63
2023/07/06 03:05:46;;;;;;;4.28;3.45;;;;;;;;;;5047122;28;43070;-63
2023/07/06 03:08:15;;;;;;;4.28;3.70;;;;;;;;;;5046615;28;40753;-63
2023/07/06 03:10:44;;;;;;;4.47;3.78;;;;;;;;;;5049115;28;42654;-63
2023/07/06 03:13:14;;;;;;;4.10;3.45;;;;;;;;;;5047512;28;42328;-63
2023/07/06 03:15:42;;;;;;;3.67;3.10;;;;;;;;;;5047027;28;40690;-63
2023/07/06 03:18:10;;;;;;;3.33;3.03;;;;;;;;;;5048674;28;42353;-62
2023/07/06 03:20:40;;;;;;;3.60;3.00;;;;;;;;;;5045915;28;40140;-63
2023/07/06 03:23:08;;;;;;;3.78;3.17;;;;;;;;;;5063742;28;40100;-62
2023/07/06 03:25:37;;;;;;;4.53;3.45;;;;;;;;;;5045396;28;42258;-62
2023/07/06 03:28:05;;;;;;;3.60;3.10;;;;;;;;;;5048182;28;40362;-63
2023/07/06 03:30:34;;;;;;;3.40;2.75;;;;;;;;;;5046589;28;41548;-63
2023/07/06 03:33:02;;;;;;;4.30;3.10;;;;;;;;;;5038880;28;42866;-63
2023/07/06 03:35:31;;;;;;;3.90;3.20;;;;;;;;;;5047252;28;40319;-68
2023/07/06 03:37:59;;;;;;;4.43;3.10;;;;;;;;;;5047274;28;41613;-64
2023/07/06 03:40:27;;;;;;;3.72;3.30;;;;;;;;;;5047045;28;42156;-64
2023/07/06 03:42:56;;;;;;;5.32;3.60;;;;;;;;;;5046843;28;42557;-63
2023/07/06 03:45:24;;;;;;;3.78;3.00;;;;;;;;;;5045603;28;41180;-64
2023/07/06 03:47:53;;;;;;;3.53;3.17;;;;;;;;;;5063403;28;38851;-63
2023/07/06 03:50:22;;;;;;;3.50;3.20;;;;;;;;;;5046591;28;42623;-63
2023/07/06 03:52:50;;;;;;;4.03;3.00;;;;;;;;;;5034369;28;42717;-64
2023/07/06 03:55:19;;;;;;;3.03;2.72;;;;;;;;;;5046947;28;41971;-64
2023/07/06 03:57:47;;;;;;;4.05;3.00;;;;;;;;;;5048808;28;41894;-63
2023/07/06 04:00:31;;;;;;;4.63;3.17;;;;;;;;;;5045479;28;42182;-63
2023/07/06 04:03:03;;;;;;;3.55;2.55;;;;;;;;;;5048388;28;40644;-63
2023/07/06 04:05:32;;;;;;;4.53;3.30;;;;;;;;;;5045958;28;43017;-63
2023/07/06 04:08:03;;;;;;;3.33;2.88;;;;;;;;;;5058604;28;40151;-63
2023/07/06 04:10:32;;;;;;;3.20;2.90;;;;;;;;;;5044915;28;42646;-63
2023/07/06 04:13:00;;;;;;;4.38;3.30;;;;;;;;;;5052379;28;42578;-63
2023/07/06 04:15:30;;;;;;;4.50;3.22;;;;;;;;;;5046256;28;42313;-63
2023/07/06 04:17:58;;;;;;;3.70;2.83;;;;;;;;;;5047227;28;41342;-63
2023/07/06 04:20:28;;;;;;;3.75;2.97;;;;;;;;;;5048584;28;42624;-64
2023/07/06 04:22:57;;;;;;;3.38;3.00;;;;;;;;;;5049925;28;39656;-64
2023/07/06 04:25:29;;;;;;;3.05;2.70;;;;;;;;;;5050481;28;42470;-63
2023/07/06 04:27:57;;;;;;;3.97;2.90;;;;;;;;;;5050075;28;41270;-63
2023/07/06 04:30:27;;;;;;;3.90;3.00;;;;;;;;;;5049383;28;41741;-64
2023/07/06 04:32:55;;;;;;;3.30;2.92;;;;;;;;;;5049533;28;41677;-63
2023/07/06 04:35:24;;;;;;;3.78;3.13;;;;;;;;;;5049886;28;40356;-63
2023/07/06 04:37:53;;;;;;;3.40;2.78;;;;;;;;;;5050554;28;41149;-63
2023/07/06 04:40:21;;;;;;;3.50;2.97;;;;;;;;;;5048501;28;42137;-63
2023/07/06 04:42:50;;;;;;;4.00;2.97;;;;;;;;;;5047458;28;39654;-63
2023/07/06 04:45:18;;;;;;;3.63;2.72;;;;;;;;;;5049165;28;42090;-64
2023/07/06 04:47:47;;;;;;;3.03;2.47;;;;;;;;;;5051001;28;41331;-64
2023/07/06 04:50:17;;;;;;;4.57;3.03;;;;;;;;;;5048772;28;42303;-64
2023/07/06 04:52:45;;;;;;;5.22;2.75;;;;;;;;;;5049363;28;42058;-61
2023/07/06 04:55:16;;;;;;;2.90;2.38;;;;;;;;;;5045516;28;41369;-62
2023/07/06 04:57:46;;;;;;;4.25;3.20;;;;;;;;;;5049914;28;41704;-62
2023/07/06 05:00:24;;;;;;;4.38;2.97;;;;;;;;;;5048307;28;42019;-62
2023/07/06 05:02:52;;;;;;;4.38;2.92;;;;;;;;;;5047653;28;40303;-62
2023/07/06 05:05:21;;;;;;;4.18;2.95;;;;;;;;;;5045885;28;42523;-62
2023/07/06 05:07:50;;;;;;;3.65;2.72;;;;;;;;;;5043228;28;42306;-61
2023/07/06 05:10:20;;;;;;;4.97;2.67;;;;;;;;;;5044666;28;41317;-62
2023/07/06 05:12:48;;;;;;;3.25;2.58;;;;;;;;;;5046984;28;41498;-62
2023/07/06 05:15:17;;;;;;;5.45;3.00;;;;;;;;;;5044046;28;40275;-62
2023/07/06 05:17:45;;;;;;;3.45;2.67;;;;;;;;;;5044197;28;42795;-62
2023/07/06 05:20:14;;;;;;;3.38;2.75;;;;;;;;;;5041966;28;42035;-62
2023/07/06 05:22:42;;;;;;;4.18;2.58;;;;;;;;;;5044726;28;40331;-62
2023/07/06 05:25:10;;;;;;;4.70;3.05;;;;;;;;;;5047083;28;42553;-62
2023/07/06 05:27:40;;;;;;;3.35;2.47;;;;;;;;;;5047931;28;42130;-61
2023/07/06 05:30:08;;;;;;;3.30;2.53;;;;;;;;;;5044918;28;40375;-62
2023/07/06 05:32:36;;;;;;;4.80;2.70;;;;;;;;;;5044015;28;42319;-62
2023/07/06 05:35:04;;;;;;;4.60;2.78;;;;;;;;;;5043018;28;40285;-61
2023/07/06 05:37:33;;;;;;;3.17;2.30;;;;;;;;;;5045582;28;43018;-62
2023/07/06 05:40:04;;;;;;;3.63;3.05;;;;;;;;;;5048327;28;43116;-62
2023/07/06 05:42:32;;;;;;;3.35;2.45;;;;;;;;;;5048659;28;40529;-62
2023/07/06 05:45:01;;;;;;;5.15;3.00;;;;;;;;;;5050394;28;42296;-62
2023/07/06 05:47:29;;;;;;;3.20;2.50;;;;;;;;;;5046898;28;42363;-62
2023/07/06 05:49:57;;;;;;;4.18;2.75;;;;;;;;;;5049155;28;40528;-62
2023/07/06 05:52:26;;;;;;;3.20;2.33;;;;;;;;;;5045060;28;41701;-62
2023/07/06 05:54:54;;;;;;;4.60;2.70;;;;;;;;;;5048966;28;40317;-62
2023/07/06 05:57:22;;;;;;;3.45;2.78;;;;;;;;;;5048421;28;41979;-62
2023/07/06 05:59:51;;;;;;;4.88;3.33;;;;;;;;;;5049960;28;41654;-63
2023/07/06 06:02:21;;;;;;;5.63;3.20;;;;;;;;;;5048006;28;40914;-62
2023/07/06 06:04:51;;;;;;;4.82;2.72;;;;;;;;;;5046515;28;41597;-62
2023/07/06 06:07:19;;;;;;;3.20;2.38;;;;;;;;;;5048603;28;41984;-62
2023/07/06 06:09:48;;;;;;;5.15;2.53;;;;;;;;;;5048343;28;40954;-62
2023/07/06 06:12:19;;;;;;;4.88;2.88;;;;;;;;;;5049226;28;41961;-63
2023/07/06 06:14:47;;;;;;;6.70;2.70;;;;;;;;;;5041103;28;41953;-62
2023/07/06 06:17:16;;;;;;;8.10;3.08;;;;;;;;;;5045673;28;41755;-61
2023/07/06 06:19:45;;;;;;;7.40;2.60;;;;;;;;;;5044219;28;43228;-62
2023/07/06 06:22:14;;;;;;;4.55;2.53;;;;;;;;;;5039631;28;39623;-62
2023/07/06 06:24:42;;;;;;;5.10;2.97;;;;;;;;;;5041230;28;43173;-62
2023/07/06 06:27:10;;;;;;;5.97;2.63;;;;;;;;;;5048461;28;43105;-62
2023/07/06 06:29:39;;;;;;;7.05;2.85;;;;;;;;;;5044797;28;41481;-62
2023/07/06 06:32:08;;;;;;;4.30;2.88;;;;;;;;;;5052159;28;41138;-63
2023/07/06 06:34:37;;;;;;;5.40;2.70;;;;;;;;;;5059922;28;42655;-62
2023/07/06 06:37:09;;;;;;;5.15;2.50;;;;;;;;;;5047345;28;41306;-62
2023/07/06 06:39:38;;;;;;;4.45;2.80;;;;;;;;;;5044345;28;42334;-69
2023/07/06 06:42:07;;;;;;;4.80;2.80;;;;;;;;;;5042233;28;40366;-69
2023/07/06 06:44:35;;;;;;;4.53;2.95;;;;;;;;;;5047651;28;41176;-69
2023/07/06 06:47:04;;;;;;;5.95;2.95;;;;;;;;;;5048758;28;43168;-64
2023/07/06 06:49:33;;;;;;;6.53;3.10;;;;;;;;;;5046433;28;41234;-63
2023/07/06 06:52:02;;;;;;;6.05;2.95;;;;;;;;;;5048801;28;42588;-67
2023/07/06 06:54:31;;;;;;;5.75;3.13;;;;;;;;;;5047131;28;43064;-70
2023/07/06 06:56:59;;;;;;;8.43;3.20;;;;;;;;;;5049343;28;40096;-68
2023/07/06 06:59:28;;;;;;;11.30;3.05;;;;;;;;;;5040652;28;41515;-69
2023/07/06 07:02:01;;;;;;;8.07;3.38;;;;;;;;;;5041458;28;41408;-69
2023/07/06 07:04:30;;;;;;;4.95;3.33;;;;;;;;;;5041233;28;41581;-68
2023/07/06 07:07:03;;;;;;;5.47;3.40;;;;;;;;;;5039308;28;42640;-72
2023/07/06 07:09:32;;;;;;;7.93;3.67;;;;;;;;;;5038499;28;40422;-66
2023/07/06 07:12:00;;;;;;;5.32;3.20;;;;;;;;;;5039475;28;42412;-66
2023/07/06 07:14:28;;;;;;;5.18;3.80;;;;;;;;;;5039682;28;42991;-70
2023/07/06 07:16:56;;;;;;;6.13;3.78;;;;;;;;;;5043594;28;40317;-72
2023/07/06 07:19:24;;;;;;;11.30;3.80;;;;;;;;;;5048835;28;41634;-75
2023/07/06 07:21:52;;;;;;;7.93;3.92;;;;;;;;;;5037372;28;40356;-76
2023/07/06 07:24:20;;;;;;;7.70;4.30;;;;;;;;;;5061755;28;41621;-72
2023/07/06 07:26:50;;;;;;;9.68;4.32;;;;;;;;;;5046260;28;42411;-68
2023/07/06 07:29:19;;;;;;;8.50;4.18;;;;;;;;;;5042167;28;41343;-71
2023/07/06 07:31:49;;;;;;;12.85;4.55;;;;;;;;;;5046832;28;42604;-69
2023/07/06 07:34:18;;;;;;;8.55;3.85;;;;;;;;;;5045270;28;42792;-72
2023/07/06 07:36:46;;;;;;;6.35;4.30;;;;;;;;;;5042044;28;41618;-70
2023/07/06 07:39:15;;;;;;;8.73;5.07;;;;;;;;;;5045146;28;41682;-70
2023/07/06 07:41:45;;;;;;;5.50;4.15;;;;;;;;;;5048322;28;42132;-73
2023/07/06 07:44:15;;;;;;;6.53;4.15;;;;;;;;;;5046421;28;41889;-71
2023/07/06 07:46:44;;;;;;;8.77;5.38;;;;;;;;;;5047784;28;44313;-73
2023/07/06 07:49:13;;;;;;;10.82;4.53;;;;;;;;;;5051213;28;40422;-73
2023/07/06 07:51:41;;;;;;;7.65;4.40;;;;;;;;;;5045797;28;41541;-71
2023/07/06 07:54:09;;;;;;;7.07;4.65;;;;;;;;;;5059513;28;42737;-72
2023/07/06 07:56:37;;;;;;;10.88;5.20;;;;;;;;;;5046579;28;41279;-72
2023/07/06 07:59:05;;;;;;;7.03;4.43;;;;;;;;;;5065092;28;41506;-74
2023/07/06 08:01:35;;;;;;;12.20;4.95;;;;;;;;;;5045315;28;42394;-63
2023/07/06 08:04:03;;;;;;;12.43;5.80;;;;;;;;;;5046237;28;40509;-64
2023/07/06 08:06:31;;;;;;;11.18;5.75;;;;;;;;;;5042312;28;42861;-66
2023/07/06 08:09:02;;;;;;;14.88;6.80;;;;;;;;;;5047750;28;40674;-69
2023/07/06 08:11:31;;;;;;;10.90;6.57;;;;;;;;;;5047112;28;42481;-66
2023/07/06 08:13:59;;;;;;;13.27;6.80;;;;;;;;;;5045668;28;42595;-65
2023/07/06 08:16:28;;;;;;;13.13;7.03;;;;;;;;;;5046927;28;40455;-66
2023/07/06 08:18:58;;;;;;;10.90;6.97;;;;;;;;;;5046020;28;42304;-74
2023/07/06 08:21:46;;;;;;;16.40;8.25;;;;;;;;;;5046563;28;43257;-71
2023/07/06 08:24:36;;;;;;;14.88;9.52;;;;;;;;;;5043917;28;41374;-70
2023/07/06 08:27:04;;;;;;;15.32;7.72;;;;;;;;;;5046152;28;42757;-70
2023/07/06 08:29:33;;;;;;;18.88;9.18;;;;;;;;;;5042792;28;41095;-70
2023/07/06 08:32:03;;;;;;;21.65;9.27;;;;;;;;;;5046977;28;41696;-69
2023/07/06 08:34:32;;;;;;;22.58;8.70;;;;;;;;;;5033404;28;43094;-69
2023/07/06 08:37:00;;;;;;;19.13;8.75;;;;;;;;;;5034274;28;40304;-68
2023/07/06 08:39:28;;;;;;;14.20;8.50;;;;;;;;;;5044724;28;42373;-69
2023/07/06 08:41:57;;;;;;;14.15;8.63;;;;;;;;;;5038753;28;42695;-69
2023/07/06 08:44:26;;;;;;;17.25;8.52;;;;;;;;;;5042698;28;41688;-69
2023/07/06 08:46:55;;;;;;;15.73;8.23;;;;;;;;;;5039971;28;42606;-69
2023/07/06 08:49:25;;;;;;;14.63;8.25;;;;;;;;;;5042288;28;31710;-69
2023/07/06 08:52:02;;;;;;;12.32;8.68;;;;;;;;;;5039562;28;41892;-69
2023/07/06 08:54:31;;;;;;;21.10;9.70;;;;;;;;;;5040588;28;42732;-68
2023/07/06 08:57:00;;;;;;;13.15;9.20;;;;;;;;;;5038580;28;40656;-69
2023/07/06 08:59:34;;;;;;;13.75;7.65;;;;;;;;;;5041959;28;41623;-74
2023/07/06 09:02:08;;;;;;;16.60;8.07;;;;;;;;;;5040071;28;42165;-67
2023/07/06 09:04:36;;;;;;;25.38;8.50;;;;;;;;;;5040944;28;41435;-67
2023/07/06 09:07:06;;;;;;;14.38;7.82;;;;;;;;;;5046728;28;41468;-67
2023/07/06 09:09:38;;;;;;;12.90;8.23;;;;;;;;;;5047442;28;42718;-67
2023/07/06 09:12:10;;;;;;;13.65;8.13;;;;;;;;;;5046021;28;42624;-67
2023/07/06 09:14:38;;;;;;;14.20;8.40;;;;;;;;;;5048877;28;43007;-67
2023/07/06 09:17:06;;;;;;;14.40;8.02;;;;;;;;;;5044724;28;41321;-68
2023/07/06 09:19:34;;;;;;;16.02;8.55;;;;;;;;;;5044242;28;42630;-68
2023/07/06 09:22:02;;;;;;;14.70;8.63;;;;;;;;;;5042357;28;42356;-67
2023/07/06 09:24:32;;;;;;;17.90;9.70;;;;;;;;;;5044561;28;40565;-68
2023/07/06 09:27:00;;;;;;;16.30;7.78;;;;;;;;;;5042192;28;42472;-68
2023/07/06 09:29:29;;;;;;;13.55;7.75;;;;;;;;;;5046416;28;43206;-67
2023/07/06 09:32:08;;;;;;;17.65;8.27;;;;;;;;;;5048015;28;41616;-67
2023/07/06 09:34:36;;;;;;;12.32;7.60;;;;;;;;;;5044693;28;41615;-67
2023/07/06 09:37:04;;;;;;;12.25;7.68;;;;;;;;;;5046754;28;40979;-67
2023/07/06 09:39:36;;;;;;;9.70;6.72;;;;;;;;;;5045204;28;42629;-68
2023/07/06 09:42:04;;;;;;;10.35;7.55;;;;;;;;;;5047056;28;42738;-70
2023/07/06 09:44:33;;;;;;;10.75;6.63;;;;;;;;;;5046920;28;41277;-67
2023/07/06 09:47:03;;;;;;;16.02;8.35;;;;;;;;;;5045521;28;43195;-68
2023/07/06 09:49:31;;;;;;;12.63;6.93;;;;;;;;;;5035267;28;44170;-68
2023/07/06 09:52:01;;;;;;;13.80;7.63;;;;;;;;;;5043779;28;40867;-68
2023/07/06 09:54:31;;;;;;;14.18;6.57;;;;;;;;;;5042862;28;42067;-64
2023/07/06 09:57:01;;;;;;;10.93;7.20;;;;;;;;;;5042735;28;38729;-64
2023/07/06 09:59:29;;;;;;;27.35;6.95;;;;;;;;;;5043729;28;42674;-63
2023/07/06 10:01:58;;;;;;;11.50;6.85;;;;;;;;;;5046216;28;42049;-63
2023/07/06 10:04:40;;;;;;;16.33;7.03;;;;;;;;;;5045334;28;41018;-63
2023/07/06 10:07:11;;;;;;;11.93;6.60;;;;;;;;;;5044627;28;42313;-58
2023/07/06 10:09:40;;;;;;;12.15;6.40;;;;;;;;;;5044740;28;42916;-59
2023/07/06 10:12:14;;;;;;;12.93;6.65;;;;;;;;;;5043382;28;40783;-59
2023/07/06 10:14:44;;;;;;;13.02;6.20;;;;;;;;;;5045067;28;42484;-59
2023/07/06 10:17:18;;;;;;;11.77;6.15;;;;;;;;;;5044603;28;42353;-59
2023/07/06 10:19:49;;;;;;;12.50;6.90;;;;;;;;;;5043911;28;41416;-59
2023/07/06 10:22:20;;;;;;;12.65;6.45;;;;;;;;;;5043070;28;43097;-59
2023/07/06 10:24:50;;;;;;;18.40;6.22;;;;;;;;;;5045960;28;40956;-59
2023/07/06 10:27:24;;;;;;;11.07;6.80;;;;;;;;;;5044686;28;42378;-58
2023/07/06 10:29:54;;;;;;;8.90;5.50;;;;;;;;;;5046223;28;42209;-59
2023/07/06 10:32:24;;;;;;;13.55;6.10;;;;;;;;;;5046687;28;39397;-62
2023/07/06 10:34:54;;;;;;;8.82;5.75;;;;;;;;;;5045485;28;41640;-62
2023/07/06 10:37:24;;;;;;;9.30;5.65;;;;;;;;;;5046042;28;42589;-62
2023/07/06 10:40:05;;;;;;;12.60;5.65;;;;;;;;;;5046524;28;41256;-63
2023/07/06 10:42:35;;;;;;;14.50;5.60;;;;;;;;;;5046621;28;42970;-63
2023/07/06 10:45:03;;;;;;;10.00;6.07;;;;;;;;;;5046769;28;42489;-62
2023/07/06 10:47:35;;;;;;;16.27;6.63;;;;;;;;;;5044009;28;41614;-67
2023/07/06 10:50:03;;;;;;;15.45;6.05;;;;;;;;;;5044326;28;41980;-61
2023/07/06 10:52:32;;;;;;;14.63;6.25;;;;;;;;;;5043791;28;40410;-61
2023/07/06 10:55:00;;;;;;;11.75;5.22;;;;;;;;;;5044707;28;41322;-60
2023/07/06 10:57:34;;;;;;;16.52;5.93;;;;;;;;;;5037340;28;42062;-61
2023/07/06 11:00:05;;;;;;;13.57;5.85;;;;;;;;;;5046855;28;40402;-60
2023/07/06 11:02:36;;;;;;;14.20;5.82;;;;;;;;;;5044280;28;42653;-60
2023/07/06 11:05:09;;;;;;;7.70;5.22;;;;;;;;;;5045832;28;41237;-60
2023/07/06 11:07:42;;;;;;;13.43;5.45;;;;;;;;;;5046130;28;41792;-60
2023/07/06 11:10:19;;;;;;;16.77;5.55;;;;;;;;;;5039049;28;42684;-60
2023/07/06 11:12:57;;;;;;;7.85;5.07;;;;;;;;;;5045845;28;40566;-61
2023/07/06 11:15:26;;;;;;;11.23;5.57;;;;;;;;;;5044204;28;41658;-60
2023/07/06 11:17:54;;;;;;;10.32;5.65;;;;;;;;;;5045192;28;42092;-61
2023/07/06 11:20:23;;;;;;;7.85;5.22;;;;;;;;;;5043853;28;40000;-60
2023/07/06 11:22:53;;;;;;;13.48;5.10;;;;;;;;;;5046279;28;41547;-64
2023/07/06 11:25:21;;;;;;;9.43;5.72;;;;;;;;;;5042877;28;40451;-64
2023/07/06 11:27:50;;;;;;;10.48;5.10;;;;;;;;;;5045843;28;42301;-64
2023/07/06 11:30:28;;;;;;;8.35;4.78;;;;;;;;;;5044128;28;41987;-64
2023/07/06 11:33:08;;;;;;;7.78;5.22;;;;;;;;;;5044788;28;40456;-64
2023/07/06 11:35:39;;;;;;;8.50;5.63;;;;;;;;;;5039505;28;42124;-64
2023/07/06 11:38:13;;;;;;;9.93;5.43;;;;;;;;;;5043295;28;41685;-64
2023/07/06 11:40:45;;;;;;;5.60;4.55;;;;;;;;;;5044735;28;39734;-64
2023/07/06 11:43:20;;;;;;;6.35;5.22;;;;;;;;;;5044433;28;42772;-64
2023/07/06 11:45:50;;;;;;;9.73;5.68;;;;;;;;;;5045940;28;41643;-64
2023/07/06 11:48:26;;;;;;;7.13;4.63;;;;;;;;;;5042362;28;41874;-64
2023/07/06 11:50:54;;;;;;;8.52;5.07;;;;;;;;;;5046323;28;42738;-64
2023/07/06 11:53:42;;;;;;;8.55;5.15;;;;;;;;;;5042789;28;39109;-64
2023/07/06 11:56:19;;;;;;;8.02;6.47;;;;;;;;;;5043310;28;42012;-64
2023/07/06 11:58:55;;;;;;;6.50;5.07;;;;;;;;;;5043318;28;42267;-61
2023/07/06 12:01:40;;;;;;;11.88;4.90;;;;;;;;;;5044094;28;40016;-61
2023/07/06 12:04:13;;;;;;;7.95;4.97;;;;;;;;;;5044068;28;43271;-61
2023/07/06 12:06:41;;;;;;;14.95;5.68;;;;;;;;;;5042873;28;42283;-61
2023/07/06 12:09:09;;;;;;;9.20;5.45;;;;;;;;;;5044337;28;40568;-62
2023/07/06 12:11:38;;;;;;;8.20;5.38;;;;;;;;;;5042942;28;40890;-62
2023/07/06 12:14:06;;;;;;;8.32;4.75;;;;;;;;;;5044378;28;38756;-62
2023/07/06 12:16:39;;;;;;;6.95;4.82;;;;;;;;;;5044063;28;42190;-61
2023/07/06 12:19:09;;;;;;;9.65;4.68;;;;;;;;;;5044957;28;42198;-61
2023/07/06 12:21:40;;;;;;;7.45;4.85;;;;;;;;;;5042971;28;40607;-62
2023/07/06 12:24:11;;;;;;;8.07;4.85;;;;;;;;;;5043848;28;42497;-62
2023/07/06 12:26:42;;;;;;;7.47;5.15;;;;;;;;;;5044037;28;43424;-62
2023/07/06 12:29:10;;;;;;;7.63;4.25;;;;;;;;;;5043223;28;39997;-61
2023/07/06 12:31:41;;;;;;;7.00;4.70;;;;;;;;;;5045122;28;42563;-61
2023/07/06 12:34:10;;;;;;;6.50;4.40;;;;;;;;;;5042642;28;40702;-62
2023/07/06 12:36:41;;;;;;;6.85;4.40;;;;;;;;;;5044595;28;41823;-61
2023/07/06 12:39:09;;;;;;;6.75;4.15;;;;;;;;;;5042486;28;43049;-62
2023/07/06 12:41:37;;;;;;;5.47;4.13;;;;;;;;;;5044984;28;41136;-61
2023/07/06 12:44:06;;;;;;;5.80;4.30;;;;;;;;;;5047273;28;42305;-61
2023/07/06 12:46:34;;;;;;;4.88;4.22;;;;;;;;;;5047957;28;43108;-61
2023/07/06 12:49:06;;;;;;;5.80;4.20;;;;;;;;;;5047371;28;40980;-61
2023/07/06 12:51:38;;;;;;;5.20;4.07;;;;;;;;;;5046410;28;42606;-61
2023/07/06 12:54:06;;;;;;;5.38;4.05;;;;;;;;;;5047146;28;43090;-61
2023/07/06 12:56:35;;;;;;;11.43;4.30;;;;;;;;;;5044101;28;42724;-61
2023/07/06 12:59:03;;;;;;;5.85;4.00;;;;;;;;;;5047350;28;42464;-61
2023/07/06 13:01:32;;;;;;;9.55;4.03;;;;;;;;;;5045342;28;40351;-61
2023/07/06 13:04:01;;;;;;;12.80;4.20;;;;;;;;;;5047269;28;41704;-67
2023/07/06 13:06:31;;;;;;;5.82;4.43;;;;;;;;;;5039435;28;42126;-61
2023/07/06 13:09:00;;;;;;;7.82;4.15;;;;;;;;;;5045539;28;39948;-62
2023/07/06 13:11:28;;;;;;;8.90;3.85;;;;;;;;;;5046141;28;41703;-61
2023/07/06 13:13:57;;;;;;;6.90;3.92;;;;;;;;;;5044980;28;41770;-62
2023/07/06 13:16:25;;;;;;;6.47;3.85;;;;;;;;;;5043451;28;40370;-61
2023/07/06 13:18:53;;;;;;;6.70;4.38;;;;;;;;;;5045033;28;42800;-61
2023/07/06 13:21:22;;;;;;;9.00;3.85;;;;;;;;;;5043012;28;39964;-61
2023/07/06 13:23:56;;;;;;;7.15;4.00;;;;;;;;;;5043872;28;42519;-61
2023/07/06 13:26:26;;;;;;;6.35;4.05;;;;;;;;;;5044013;28;42162;-61
2023/07/06 13:28:54;;;;;;;6.88;4.00;;;;;;;;;;5077367;22;39812;-61
2023/07/06 13:31:24;;;;;;;8.05;3.90;;;;;;;;;;5103022;27;41781;-62
2023/07/06 13:33:57;;;;;;;6.90;3.53;;;;;;;;;;5107708;27;41551;-62
2023/07/06 13:36:25;;;;;;;7.35;4.03;;;;;;;;;;5104840;28;40804;-61
2023/07/06 13:38:55;;;;;;;6.82;4.47;;;;;;;;;;5106768;27;43200;-62
2023/07/06 13:41:24;;;;;;;6.95;4.43;;;;;;;;;;5104027;28;41447;-61
2023/07/06 13:43:52;;;;;;;8.55;4.18;;;;;;;;;;5106972;27;41358;-61
2023/07/06 13:46:20;;;;;;;8.38;3.95;;;;;;;;;;5102554;28;42169;-62
2023/07/06 13:48:48;;;;;;;7.00;4.68;;;;;;;;;;5106341;28;41309;-61
2023/07/06 13:51:16;;;;;;;7.63;4.40;;;;;;;;;;5101479;27;41946;-61
2023/07/06 13:53:49;;;;;;;5.53;4.45;;;;;;;;;;5105464;27;41782;-62
2023/07/06 13:56:19;;;;;;;10.38;5.20;;;;;;;;;;5105519;27;40999;-61
2023/07/06 13:58:47;;;;;;;7.50;4.93;;;;;;;;;;5104157;27;41082;-61
2023/07/06 14:01:16;;;;;;;8.93;5.18;;;;;;;;;;5105110;27;39995;-61
2023/07/06 14:03:44;;;;;;;5.97;5.00;;;;;;;;;;5104985;27;41617;-61
2023/07/06 14:06:12;;;;;;;10.43;4.93;;;;;;;;;;5103792;27;43162;-61
2023/07/06 14:08:41;;;;;;;8.57;5.22;;;;;;;;;;5101939;27;41062;-61
2023/07/06 14:11:09;;;;;;;10.70;4.75;;;;;;;;;;5103706;28;42534;-60
2023/07/06 14:13:39;;;;;;;8.82;4.53;;;;;;;;;;5104491;28;42301;-62
2023/07/06 14:16:10;;;;;;;13.15;4.75;;;;;;;;;;5105077;27;41513;-61
2023/07/06 14:18:38;;;;;;;13.02;4.60;;;;;;;;;;5106622;27;42566;-61
2023/07/06 14:21:06;;;;;;;8.82;4.47;;;;;;;;;;5104173;28;42086;-60
2023/07/06 14:23:35;;;;;;;6.82;4.28;;;;;;;;;;5105877;27;41581;-61
2023/07/06 14:26:03;;;;;;;7.38;3.88;;;;;;;;;;5102279;28;43182;-60
2023/07/06 14:28:32;;;;;;;9.98;4.18;;;;;;;;;;5104391;27;39877;-60
2023/07/06 14:31:13;;;;;;;7.35;4.47;;;;;;;;;;5101596;28;41750;-60
2023/07/06 14:33:41;;;;;;;8.38;4.00;;;;;;;;;;5105325;27;42702;-61
2023/07/06 14:36:09;;;;;;;10.90;4.32;;;;;;;;;;5104493;28;40731;-61
2023/07/06 14:38:37;;;;;;;6.82;3.80;;;;;;;;;;5106122;27;42292;-61
2023/07/06 14:41:07;;;;;;;6.93;3.95;;;;;;;;;;5104674;28;42671;-61
2023/07/06 14:43:34;;;;;;;6.30;3.85;;;;;;;;;;5103011;27;41354;-61
2023/07/06 14:46:03;;;;;;;6.80;4.10;;;;;;;;;;5105402;27;42581;-61
2023/07/06 14:48:32;;;;;;;14.57;4.05;;;;;;;;;;5100862;28;40697;-61
2023/07/06 14:51:04;;;;;;;11.05;4.28;;;;;;;;;;5105777;27;41260;-60
2023/07/06 14:53:33;;;;;;;12.25;4.10;;;;;;;;;;5101914;28;43087;-62
2023/07/06 14:56:01;;;;;;;20.17;4.60;;;;;;;;;;5099917;27;40370;-64